createdAt,value
2022-11-08T00:00:05.732Z,11.71
2022-11-08T00:05:26.878Z,11.67
2022-11-08T00:10:49.592Z,11.60
2022-11-08T00:15:53.245Z,11.57
2022-11-08T00:20:56.943Z,11.52
2022-11-08T00:26:01.955Z,11.53
2022-11-08T00:31:06.944Z,11.53
2022-11-08T00:36:11.104Z,11.44
2022-11-08T00:41:16.211Z,11.42
2022-11-08T00:46:19.909Z,11.38
2022-11-08T00:51:23.690Z,11.32
2022-11-08T00:56:28.737Z,11.30
2022-11-08T01:01:32.553Z,11.30
2022-11-08T01:06:36.603Z,11.32
2022-11-08T01:11:46.302Z,11.26
2022-11-08T01:16:50.122Z,11.23
2022-11-08T01:21:53.783Z,11.24
2022-11-08T01:26:58.859Z,11.18
2022-11-08T01:32:02.523Z,11.20
2022-11-08T01:37:06.186Z,11.15
2022-11-08T01:42:11.196Z,11.16
2022-11-08T01:47:14.944Z,11.14
2022-11-08T01:52:26.095Z,11.11
2022-11-08T01:57:34.802Z,11.06
2022-11-08T02:02:40.229Z,11.05
2022-11-08T02:07:43.941Z,11.00
2022-11-08T02:12:49.793Z,10.99
2022-11-08T02:17:54.147Z,10.95
2022-11-08T02:23:03.441Z,10.94
2022-11-08T02:28:08.602Z,10.97
2022-11-08T02:33:16.545Z,10.98
2022-11-08T02:38:20.730Z,10.99
2022-11-08T02:43:26.183Z,10.93
2022-11-08T02:48:30.038Z,10.95
2022-11-08T02:53:34.035Z,10.95
2022-11-08T02:58:39.084Z,10.91
2022-11-08T03:03:42.715Z,10.91
2022-11-08T03:08:46.391Z,10.90
2022-11-08T03:13:51.397Z,10.84
2022-11-08T03:18:55.126Z,10.81
2022-11-08T03:23:58.791Z,10.87
2022-11-08T03:29:03.763Z,10.85
2022-11-08T03:34:07.406Z,10.83
2022-11-08T03:39:12.234Z,10.72
2022-11-08T03:44:17.319Z,10.72
2022-11-08T03:49:21.033Z,10.64
2022-11-08T03:54:24.683Z,10.69
2022-11-08T03:59:29.806Z,10.66
2022-11-08T04:04:33.521Z,10.65
2022-11-08T04:09:37.254Z,10.67
2022-11-08T04:15:02.293Z,10.64
2022-11-08T04:20:24.769Z,10.63
2022-11-08T04:25:33.938Z,10.63
2022-11-08T04:30:40.105Z,10.65
2022-11-08T04:35:43.799Z,10.65
2022-11-08T04:40:47.819Z,10.65
2022-11-08T04:45:52.811Z,10.62
2022-11-08T04:50:56.743Z,10.62
2022-11-08T04:56:02.770Z,10.60
2022-11-08T05:01:09.737Z,10.61
2022-11-08T05:06:15.122Z,10.61
2022-11-08T05:11:21.030Z,10.61
2022-11-08T05:16:28.117Z,10.66
2022-11-08T05:21:49.557Z,10.64
2022-11-08T05:26:53.234Z,10.69
2022-11-08T05:31:58.215Z,10.72
2022-11-08T05:37:01.911Z,10.73
2022-11-08T05:42:05.753Z,10.69
2022-11-08T05:47:10.798Z,10.71
2022-11-08T05:52:14.514Z,10.76
2022-11-08T05:57:21.310Z,10.66
2022-11-08T06:02:29.768Z,10.68
2022-11-08T06:07:33.785Z,10.66
2022-11-08T06:12:38.175Z,10.66
2022-11-08T06:17:43.258Z,10.64
2022-11-08T06:22:46.954Z,10.62
2022-11-08T06:27:50.636Z,10.60
2022-11-08T06:32:55.666Z,10.60
2022-11-08T06:38:01.957Z,10.61
2022-11-08T06:43:07.295Z,10.64
2022-11-08T06:48:12.303Z,10.69
2022-11-08T06:53:16.379Z,10.71
2022-11-08T06:58:20.323Z,10.74
2022-11-08T07:03:25.494Z,10.72
2022-11-08T07:08:29.245Z,10.82
2022-11-08T07:13:32.979Z,10.82
2022-11-08T07:18:38.057Z,10.87
2022-11-08T07:23:41.855Z,10.86
2022-11-08T07:28:45.545Z,10.90
2022-11-08T07:33:50.836Z,10.95
2022-11-08T07:38:54.847Z,10.99
2022-11-08T07:43:58.525Z,11.07
2022-11-08T07:49:03.549Z,11.17
2022-11-08T07:54:07.346Z,11.23
2022-11-08T07:59:11.054Z,11.28
2022-11-08T08:04:16.286Z,11.32
2022-11-08T08:09:20.139Z,11.40
2022-11-08T08:14:23.924Z,11.47
2022-11-08T08:19:28.992Z,11.57
2022-11-08T08:24:32.809Z,11.62
2022-11-08T08:29:36.457Z,11.67
2022-11-08T08:34:41.486Z,11.74
2022-11-08T08:39:45.213Z,11.78
2022-11-08T08:44:48.886Z,11.87
2022-11-08T08:49:54.002Z,11.93
2022-11-08T08:54:57.686Z,12.07
2022-11-08T09:05:26.515Z,12.19
2022-11-08T09:10:30.626Z,12.34
2022-11-08T09:15:34.427Z,12.40
2022-11-08T09:20:39.509Z,12.47
2022-11-08T09:25:43.349Z,12.57
2022-11-08T09:30:47.040Z,12.66
2022-11-08T09:35:53.954Z,12.80
2022-11-08T09:41:15.006Z,12.90
2022-11-08T09:46:27.799Z,12.97
2022-11-08T09:51:36.018Z,13.14
2022-11-08T09:56:39.652Z,13.21
2022-11-08T10:01:43.218Z,13.41
2022-11-08T10:07:03.297Z,13.57
2022-11-08T10:12:17.574Z,13.72
2022-11-08T10:17:41.049Z,13.70
2022-11-08T10:22:53.376Z,13.68
2022-11-08T10:28:00.963Z,13.63
2022-11-08T10:33:17.484Z,13.59
2022-11-08T10:38:33.587Z,13.62
2022-11-08T10:43:42.196Z,13.72
2022-11-08T10:48:45.995Z,13.66
2022-11-08T10:53:51.097Z,13.73
2022-11-08T10:58:54.906Z,13.71
2022-11-08T11:03:58.580Z,13.71
2022-11-08T11:09:18.249Z,13.76
2022-11-08T11:14:23.000Z,13.80
2022-11-08T11:19:28.330Z,13.82
2022-11-08T11:24:35.464Z,13.86
2022-11-08T11:29:39.869Z,14.13
2022-11-08T11:34:53.178Z,14.70
2022-11-08T11:40:07.320Z,14.90
2022-11-08T11:45:18.552Z,15.15
2022-11-08T11:50:29.037Z,15.47
2022-11-08T11:55:50.297Z,15.94
2022-11-08T12:01:00.901Z,16.20
2022-11-08T12:06:17.452Z,16.45
2022-11-08T12:11:35.898Z,16.01
2022-11-08T12:16:47.224Z,16.01
2022-11-08T12:22:01.341Z,15.75
2022-11-08T12:27:18.369Z,15.54
2022-11-08T12:32:42.845Z,15.46
2022-11-08T12:37:58.823Z,15.43
2022-11-08T12:43:17.858Z,15.33
2022-11-08T12:48:34.992Z,15.52
2022-11-08T12:53:52.141Z,15.62
2022-11-08T12:58:57.753Z,15.92
2022-11-08T13:04:19.976Z,15.90
2022-11-08T13:09:35.826Z,15.86
2022-11-08T13:14:41.732Z,16.02
2022-11-08T13:20:04.789Z,16.29
2022-11-08T13:25:39.142Z,16.67
2022-11-08T13:30:44.635Z,16.59
2022-11-08T13:35:56.822Z,16.84
2022-11-08T13:41:14.231Z,17.02
2022-11-08T13:46:46.934Z,17.18
2022-11-08T13:51:51.556Z,17.27
2022-11-08T13:56:56.643Z,17.30
2022-11-08T14:02:04.312Z,17.28
2022-11-08T14:07:12.524Z,17.20
2022-11-08T14:12:21.784Z,16.88
2022-11-08T14:17:39.978Z,16.44
2022-11-08T14:22:49.927Z,16.29
2022-11-08T14:27:54.282Z,16.06
2022-11-08T14:33:17.335Z,15.94
2022-11-08T14:38:21.665Z,15.83
2022-11-08T14:43:26.681Z,15.90
2022-11-08T14:48:32.333Z,15.79
2022-11-08T14:53:46.868Z,15.49
2022-11-08T14:58:51.932Z,15.28
2022-11-08T15:03:59.327Z,15.29
2022-11-08T15:09:04.898Z,15.19
2022-11-08T15:14:10.630Z,15.30
2022-11-08T15:19:36.897Z,15.28
2022-11-08T15:24:41.397Z,15.29
2022-11-08T15:30:00.367Z,15.22
2022-11-08T15:35:06.547Z,15.22
2022-11-08T15:40:19.966Z,14.96
2022-11-08T15:45:28.706Z,14.84
2022-11-08T15:50:34.171Z,14.88
2022-11-08T15:55:40.358Z,14.77
2022-11-08T16:00:47.255Z,14.69
2022-11-08T16:05:52.346Z,14.66
2022-11-08T16:11:00.829Z,14.55
2022-11-08T16:16:06.179Z,14.44
2022-11-08T16:21:12.812Z,14.39
2022-11-08T16:26:18.300Z,14.38
2022-11-08T16:31:22.034Z,14.24
2022-11-08T16:36:28.077Z,14.29
2022-11-08T16:41:31.824Z,14.28
2022-11-08T16:46:35.664Z,14.33
2022-11-08T16:51:40.698Z,14.30
2022-11-08T16:56:44.402Z,14.11
2022-11-08T17:01:49.873Z,14.06
2022-11-08T17:06:55.119Z,14.06
2022-11-08T17:11:58.879Z,13.97
2022-11-08T17:17:02.560Z,13.90
2022-11-08T17:22:07.659Z,13.73
2022-11-08T17:27:11.385Z,13.70
2022-11-08T17:32:15.256Z,13.76
2022-11-08T17:37:20.412Z,13.67
2022-11-08T17:42:24.412Z,13.62
2022-11-08T17:47:29.792Z,13.57
2022-11-08T17:52:34.801Z,13.57
2022-11-08T17:57:38.474Z,13.48
2022-11-08T18:02:42.138Z,13.54
2022-11-08T18:07:47.333Z,13.54
2022-11-08T18:12:51.262Z,13.58
2022-11-08T18:17:55.598Z,13.56
2022-11-08T18:23:00.719Z,13.58
2022-11-08T18:28:04.584Z,13.68
2022-11-08T18:33:08.718Z,13.63
2022-11-08T18:38:15.226Z,13.68
2022-11-08T18:43:19.295Z,13.64
2022-11-08T18:48:24.212Z,13.66
2022-11-08T18:53:29.354Z,13.70
2022-11-08T18:58:33.426Z,13.65
2022-11-08T19:03:37.478Z,13.66
2022-11-08T19:08:42.593Z,13.65
2022-11-08T19:13:46.443Z,13.67
2022-11-08T19:18:51.183Z,13.62
2022-11-08T19:24:00.036Z,13.61
2022-11-08T19:29:04.182Z,13.59
2022-11-08T19:34:08.043Z,13.57
2022-11-08T19:39:13.806Z,13.57
2022-11-08T19:44:17.683Z,13.52
2022-11-08T19:49:25.394Z,13.52
2022-11-08T19:54:30.635Z,13.48
2022-11-08T19:59:34.488Z,13.46
2022-11-08T20:04:38.221Z,13.39
2022-11-08T20:09:43.380Z,13.47
2022-11-08T20:14:49.973Z,13.47
2022-11-08T20:19:53.757Z,13.46
2022-11-08T20:24:58.986Z,13.46
2022-11-08T20:30:02.813Z,13.52
2022-11-08T20:35:08.692Z,13.55
2022-11-08T20:40:14.800Z,13.53
2022-11-08T20:45:18.637Z,13.54
2022-11-08T20:50:22.314Z,13.52
2022-11-08T20:55:27.892Z,13.46
2022-11-08T21:00:56.513Z,13.43
2022-11-08T21:05:57.032Z,13.37
2022-11-08T21:11:03.847Z,13.29
2022-11-08T21:16:28.746Z,13.21
2022-11-08T21:21:33.173Z,13.24
2022-11-08T21:26:38.327Z,13.20
2022-11-08T21:31:42.094Z,13.15
2022-11-08T21:36:45.814Z,13.09
2022-11-08T21:41:51.026Z,13.08
2022-11-08T21:46:54.814Z,13.08
2022-11-08T21:51:58.551Z,13.00
2022-11-08T21:57:03.936Z,13.06
2022-11-08T22:02:08.456Z,13.07
2022-11-08T22:07:12.383Z,13.08
2022-11-08T22:12:17.485Z,13.09
2022-11-08T22:17:22.459Z,13.07
2022-11-08T22:22:26.324Z,13.09
2022-11-08T22:27:33.117Z,13.05
2022-11-08T22:32:38.083Z,13.17
2022-11-08T22:37:42.093Z,13.14
2022-11-08T22:42:47.322Z,13.16
2022-11-08T22:47:51.081Z,13.13
2022-11-08T22:52:54.756Z,13.14
2022-11-08T22:57:59.847Z,13.17
2022-11-08T23:03:03.851Z,13.13
2022-11-08T23:08:07.764Z,13.13
2022-11-08T23:13:27.009Z,13.10
2022-11-08T23:18:30.753Z,13.15
2022-11-08T23:24:04.870Z,13.13
2022-11-08T23:29:28.678Z,13.18
2022-11-08T23:34:32.392Z,13.23
2022-11-08T23:39:56.350Z,13.28
2022-11-08T23:45:01.392Z,13.28
2022-11-08T23:50:05.846Z,13.38
2022-11-08T23:55:10.679Z,13.34
